createdAt,value
2019-05-20T00:01:08.626Z,3.30
2019-05-20T00:03:29.965Z,3.60
2019-05-20T00:05:51.316Z,3.20
2019-05-20T00:08:12.554Z,3.43
2019-05-20T00:10:33.732Z,3.70
2019-05-20T00:12:55.046Z,3.93
2019-05-20T00:15:16.323Z,3.73
2019-05-20T00:17:37.532Z,3.70
2019-05-20T00:19:58.752Z,3.70
2019-05-20T00:22:19.958Z,3.53
2019-05-20T00:24:41.141Z,3.77
2019-05-20T00:27:02.434Z,3.27
2019-05-20T00:29:23.696Z,3.60
2019-05-20T00:31:44.981Z,3.50
2019-05-20T00:34:06.178Z,3.53
2019-05-20T00:36:27.363Z,3.27
2019-05-20T00:39:07.368Z,2.97
2019-05-20T00:41:28.557Z,3.57
2019-05-20T00:43:50.023Z,3.23
2019-05-20T00:46:11.302Z,3.43
2019-05-20T00:48:32.499Z,3.40
2019-05-20T00:50:54.682Z,3.20
2019-05-20T00:53:15.873Z,3.30
2019-05-20T00:55:37.750Z,3.20
2019-05-20T00:57:58.986Z,3.30
2019-05-20T01:00:20.478Z,3.00
2019-05-20T01:02:55.816Z,3.17
2019-05-20T01:05:04.954Z,3.20
2019-05-20T01:07:26.241Z,2.80
2019-05-20T01:09:47.537Z,3.80
2019-05-20T01:12:08.724Z,3.10
2019-05-20T01:14:30.030Z,3.20
2019-05-20T01:16:51.228Z,3.40
2019-05-20T01:19:12.430Z,3.07
2019-05-20T01:21:33.638Z,3.20
2019-05-20T01:23:54.836Z,3.60
2019-05-20T01:26:16.012Z,3.27
2019-05-20T01:28:37.480Z,3.87
2019-05-20T01:30:58.785Z,3.53
2019-05-20T01:33:19.985Z,3.50
2019-05-20T01:35:41.180Z,3.63
2019-05-20T01:38:02.386Z,3.90
2019-05-20T01:40:23.573Z,4.00
2019-05-20T01:42:44.764Z,3.80
2019-05-20T01:45:06.764Z,4.17
2019-05-20T01:47:27.959Z,3.90
2019-05-20T01:49:49.252Z,4.20
2019-05-20T01:52:10.762Z,4.30
2019-05-20T01:54:31.974Z,4.20
2019-05-20T01:56:53.250Z,4.50
2019-05-20T01:59:14.478Z,4.50
2019-05-20T02:01:35.666Z,4.50
2019-05-20T02:03:56.867Z,4.33
2019-05-20T02:06:18.054Z,4.40
2019-05-20T02:08:39.267Z,4.60
2019-05-20T02:11:00.471Z,5.00
2019-05-20T02:13:23.582Z,4.67
2019-05-20T02:15:52.233Z,5.33
2019-05-20T02:18:13.413Z,5.00
2019-05-20T02:20:34.711Z,5.70
2019-05-20T02:23:14.638Z,5.60
2019-05-20T02:25:36.103Z,5.97
2019-05-20T02:27:57.374Z,5.17
2019-05-20T02:30:18.832Z,5.93
2019-05-20T02:32:40.081Z,5.73
2019-05-20T02:35:02.029Z,6.43
2019-05-20T02:37:23.278Z,6.27
2019-05-20T02:39:44.473Z,6.20
2019-05-20T02:42:05.662Z,6.40
2019-05-20T02:44:26.872Z,6.77
2019-05-20T02:46:48.812Z,6.63
2019-05-20T02:49:10.242Z,6.73
2019-05-20T02:51:31.451Z,6.97
2019-05-20T02:53:53.005Z,7.07
2019-05-20T02:56:14.210Z,7.20
2019-05-20T02:58:35.404Z,7.73
2019-05-20T03:00:56.617Z,7.07
2019-05-20T03:03:17.807Z,7.57
2019-05-20T03:05:38.998Z,7.60
2019-05-20T03:08:00.229Z,7.30
2019-05-20T03:10:21.421Z,7.47
2019-05-20T03:12:42.707Z,7.60
2019-05-20T03:15:05.211Z,8.43
2019-05-20T03:17:26.413Z,8.20
2019-05-20T03:19:47.606Z,8.50
2019-05-20T03:22:08.782Z,8.20
2019-05-20T03:24:29.977Z,8.53
2019-05-20T03:26:51.614Z,8.60
2019-05-20T03:29:12.990Z,8.30
2019-05-20T03:31:34.331Z,9.00
2019-05-20T03:33:55.609Z,9.10
2019-05-20T03:36:19.878Z,9.07
2019-05-20T03:38:41.486Z,9.90
2019-05-20T03:41:03.194Z,8.90
2019-05-20T03:43:24.370Z,9.63
2019-05-20T03:45:45.569Z,9.67
2019-05-20T03:48:06.754Z,10.03
2019-05-20T03:50:27.957Z,10.60
2019-05-20T03:52:49.141Z,10.27
2019-05-20T03:55:10.618Z,10.60
2019-05-20T03:57:31.814Z,11.40
2019-05-20T03:59:53.022Z,11.00
2019-05-20T04:02:14.233Z,11.80
2019-05-20T04:04:35.404Z,11.47
2019-05-20T04:06:56.783Z,11.27
2019-05-20T04:09:18.276Z,10.63
2019-05-20T04:11:39.484Z,11.10
2019-05-20T04:14:00.666Z,11.83
2019-05-20T04:16:21.894Z,11.73
2019-05-20T04:18:43.097Z,11.90
2019-05-20T04:21:04.675Z,12.23
2019-05-20T04:23:26.216Z,12.53
2019-05-20T04:25:47.595Z,12.63
2019-05-20T04:28:08.856Z,16.10
2019-05-20T04:30:30.274Z,38.80
2019-05-20T04:32:51.558Z,18.17
2019-05-20T04:35:21.936Z,27.10
2019-05-20T04:37:36.154Z,22.57
2019-05-20T04:39:57.597Z,16.53
2019-05-20T04:42:18.839Z,13.00
2019-05-20T04:44:40.341Z,12.03
2019-05-20T04:47:02.653Z,12.07
2019-05-20T04:49:23.840Z,13.87
2019-05-20T04:51:45.051Z,13.80
2019-05-20T04:54:06.226Z,21.17
2019-05-20T04:56:29.374Z,15.20
2019-05-20T04:58:50.694Z,18.60
2019-05-20T05:01:11.888Z,18.87
2019-05-20T05:03:33.389Z,15.30
2019-05-20T05:05:54.839Z,15.93
2019-05-20T05:08:17.550Z,13.33
2019-05-20T05:10:38.975Z,11.63
2019-05-20T05:13:00.301Z,12.43
2019-05-20T05:15:21.624Z,11.70
2019-05-20T05:17:43.119Z,13.30
2019-05-20T05:20:05.098Z,12.07
2019-05-20T05:22:26.544Z,11.13
2019-05-20T05:24:47.753Z,16.33
2019-05-20T05:27:10.049Z,17.93
2019-05-20T05:29:31.282Z,14.07
2019-05-20T05:31:52.669Z,11.67
2019-05-20T05:34:13.870Z,11.20
2019-05-20T05:36:35.078Z,11.90
2019-05-20T05:38:56.295Z,12.10
2019-05-20T05:41:17.604Z,11.47
2019-05-20T05:43:38.874Z,11.33
2019-05-20T05:46:00.063Z,11.73
2019-05-20T05:48:22.467Z,11.23
2019-05-20T05:50:43.648Z,11.60
2019-05-20T05:53:04.857Z,11.53
2019-05-20T05:55:26.185Z,11.67
2019-05-20T05:57:47.402Z,11.47
2019-05-20T06:00:09.454Z,11.90
2019-05-20T06:02:30.774Z,12.30
2019-05-20T06:04:52.343Z,12.03
2019-05-20T06:07:13.548Z,11.73
2019-05-20T06:09:34.820Z,11.67
2019-05-20T06:11:56.048Z,11.43
2019-05-20T06:14:17.327Z,11.80
2019-05-20T06:16:38.851Z,12.20
2019-05-20T06:19:00.144Z,11.23
2019-05-20T06:21:21.341Z,11.80
2019-05-20T06:23:42.659Z,12.10
2019-05-20T06:26:03.980Z,12.80
2019-05-20T06:28:25.286Z,12.13
2019-05-20T06:30:46.502Z,11.97
2019-05-20T06:33:07.728Z,12.60
2019-05-20T06:35:29.024Z,11.83
2019-05-20T06:37:52.207Z,13.90
2019-05-20T06:40:13.727Z,12.87
2019-05-20T06:42:34.972Z,12.57
2019-05-20T06:44:57.447Z,13.37
2019-05-20T06:47:19.879Z,12.30
2019-05-20T06:49:41.214Z,12.57
2019-05-20T06:52:02.616Z,13.07
2019-05-20T06:54:23.841Z,11.97
2019-05-20T06:56:45.173Z,12.67
2019-05-20T06:59:07.105Z,12.97
2019-05-20T07:01:28.385Z,13.57
2019-05-20T07:03:49.701Z,12.77
2019-05-20T07:06:11.149Z,13.70
2019-05-20T07:08:32.698Z,13.33
2019-05-20T07:10:53.989Z,14.60
2019-05-20T07:13:16.311Z,13.60
2019-05-20T07:15:37.890Z,12.07
2019-05-20T07:17:59.175Z,13.27
2019-05-20T07:20:20.369Z,12.47
2019-05-20T07:22:55.381Z,12.70
2019-05-20T07:25:06.670Z,12.37
2019-05-20T07:27:28.384Z,12.27
2019-05-20T07:29:49.741Z,12.77
2019-05-20T07:32:10.973Z,12.60
2019-05-20T07:34:32.412Z,12.17
2019-05-20T07:37:03.401Z,12.37
2019-05-20T07:39:16.851Z,13.43
2019-05-20T07:41:41.402Z,11.97
2019-05-20T07:44:01.437Z,11.73
2019-05-20T07:46:22.821Z,11.87
2019-05-20T07:48:44.186Z,11.67
2019-05-20T07:51:07.145Z,11.77
2019-05-20T07:53:29.406Z,11.93
2019-05-20T07:56:14.729Z,11.37
2019-05-20T07:58:57.800Z,17.67
2019-05-20T08:01:19.302Z,24.50
2019-05-20T08:03:40.486Z,12.50
2019-05-20T08:06:01.791Z,11.90
2019-05-20T08:08:22.976Z,12.53
2019-05-20T08:10:44.505Z,11.97
2019-05-20T08:13:05.900Z,11.90
2019-05-20T08:15:27.310Z,12.07
2019-05-20T08:17:48.495Z,11.63
2019-05-20T08:20:11.108Z,12.00
2019-05-20T08:22:32.396Z,12.50
2019-05-20T08:24:53.708Z,11.23
2019-05-20T08:27:15.142Z,11.50
2019-05-20T08:29:37.092Z,10.87
2019-05-20T08:31:58.406Z,11.63
2019-05-20T08:34:19.837Z,11.13
2019-05-20T08:36:41.026Z,11.63
2019-05-20T08:39:05.041Z,12.40
2019-05-20T08:41:26.349Z,11.50
2019-05-20T08:43:47.667Z,11.63
2019-05-20T08:46:08.983Z,11.33
2019-05-20T08:48:30.177Z,11.30
2019-05-20T08:50:51.474Z,11.67
2019-05-20T08:53:12.673Z,11.90
2019-05-20T08:55:33.974Z,11.70
2019-05-20T08:57:55.169Z,11.43
2019-05-20T09:00:24.244Z,11.37
2019-05-20T09:02:45.868Z,11.80
2019-05-20T09:05:07.448Z,11.63
2019-05-20T09:07:28.697Z,11.10
2019-05-20T09:09:50.016Z,11.43
2019-05-20T09:12:16.472Z,12.07
2019-05-20T09:14:40.477Z,11.40
2019-05-20T09:17:00.790Z,11.13
2019-05-20T09:19:21.989Z,11.00
2019-05-20T09:22:03.079Z,10.87
2019-05-20T09:24:24.388Z,11.03
2019-05-20T09:26:45.694Z,10.57
2019-05-20T09:29:10.778Z,11.00
2019-05-20T09:31:30.059Z,10.73
2019-05-20T09:33:51.583Z,12.53
2019-05-20T09:36:12.973Z,11.43
2019-05-20T09:38:36.969Z,12.40
2019-05-20T09:40:57.406Z,11.20
2019-05-20T09:43:18.787Z,11.13
2019-05-20T09:45:41.347Z,13.17
2019-05-20T09:48:03.334Z,12.10
2019-05-20T09:50:24.531Z,12.80
2019-05-20T09:52:45.864Z,12.63
2019-05-20T09:55:07.287Z,12.67
2019-05-20T09:57:28.598Z,11.83
2019-05-20T09:59:50.881Z,12.00
2019-05-20T10:02:12.094Z,12.10
2019-05-20T10:04:33.284Z,12.33
2019-05-20T10:06:54.575Z,11.93
2019-05-20T10:09:15.757Z,12.67
2019-05-20T10:11:37.054Z,12.83
2019-05-20T10:13:58.235Z,12.70
2019-05-20T10:16:19.444Z,11.90
2019-05-20T10:18:40.637Z,11.80
2019-05-20T10:21:01.869Z,11.13
2019-05-20T10:23:23.250Z,12.00
2019-05-20T10:25:44.442Z,12.80
2019-05-20T10:28:05.637Z,13.07
2019-05-20T10:30:26.850Z,12.10
2019-05-20T10:32:48.089Z,12.23
2019-05-20T10:35:09.525Z,11.87
2019-05-20T10:37:30.846Z,11.57
2019-05-20T10:39:52.032Z,12.30
2019-05-20T10:42:13.231Z,12.67
2019-05-20T10:44:34.425Z,12.77
2019-05-20T10:46:55.749Z,13.57
2019-05-20T10:49:16.954Z,13.30
2019-05-20T10:51:38.165Z,12.47
2019-05-20T10:53:59.360Z,13.13
2019-05-20T10:56:20.569Z,13.33
2019-05-20T10:58:42.907Z,13.23
2019-05-20T11:01:04.218Z,12.53
2019-05-20T11:03:25.534Z,13.17
2019-05-20T11:05:46.727Z,13.43
2019-05-20T11:08:07.960Z,12.17
2019-05-20T11:10:30.351Z,12.83
2019-05-20T11:12:55.373Z,12.73
2019-05-20T11:15:17.676Z,12.80
2019-05-20T11:17:40.765Z,11.90
2019-05-20T11:20:07.238Z,13.23
2019-05-20T11:22:31.589Z,13.00
2019-05-20T11:24:53.483Z,13.00
2019-05-20T11:30:42.581Z,13.57
2019-05-20T11:36:36.997Z,13.20
2019-05-20T11:39:02.404Z,12.70
2019-05-20T11:41:54.246Z,12.90
2019-05-20T11:44:00.174Z,13.03
2019-05-20T11:46:21.386Z,13.27
2019-05-20T11:48:47.746Z,14.10
2019-05-20T11:51:12.702Z,14.20
2019-05-20T11:53:34.067Z,14.33
2019-05-20T11:55:55.261Z,13.83
2019-05-20T11:58:17.620Z,15.37
2019-05-20T12:00:42.159Z,15.40
2019-05-20T12:03:12.576Z,15.97
2019-05-20T12:05:35.925Z,14.77
2019-05-20T12:07:57.645Z,16.37
2019-05-20T12:10:32.463Z,16.20
2019-05-20T12:12:55.912Z,15.57
2019-05-20T12:15:22.271Z,17.03
2019-05-20T12:17:43.487Z,16.20
2019-05-20T12:20:11.496Z,16.43
2019-05-20T12:22:32.526Z,16.33
2019-05-20T12:24:54.274Z,17.77
2019-05-20T12:27:15.890Z,16.77
2019-05-20T12:29:37.130Z,17.07
2019-05-20T12:32:03.237Z,16.43
2019-05-20T12:34:22.215Z,16.57
2019-05-20T12:36:44.296Z,16.87
2019-05-20T12:39:08.024Z,16.33
2019-05-20T12:41:30.204Z,16.03
2019-05-20T12:44:10.159Z,15.43
2019-05-20T12:46:20.210Z,17.80
2019-05-20T12:48:46.986Z,15.93
2019-05-20T12:51:08.346Z,16.07
2019-05-20T12:53:29.571Z,16.77
2019-05-20T12:55:55.896Z,16.63
2019-05-20T12:58:18.957Z,16.83
2019-05-20T13:00:40.282Z,18.33
2019-05-20T13:03:01.493Z,22.27
2019-05-20T13:05:31.503Z,36.27
2019-05-20T13:07:54.862Z,48.17
2019-05-20T13:10:28.872Z,44.30
2019-05-20T13:12:54.770Z,43.47
2019-05-20T13:15:16.812Z,44.93
2019-05-20T13:17:44.412Z,41.77
2019-05-20T13:20:03.659Z,44.87
2019-05-20T13:22:25.164Z,37.17
2019-05-20T13:24:46.502Z,41.23
2019-05-20T13:27:09.407Z,35.30
2019-05-20T13:29:32.690Z,37.40
2019-05-20T13:31:55.100Z,44.03
2019-05-20T13:34:18.835Z,40.00
2019-05-20T13:36:41.277Z,37.87
2019-05-20T13:39:06.376Z,45.67
2019-05-20T13:41:37.701Z,40.20
2019-05-20T13:44:10.038Z,44.97
2019-05-20T13:46:54.646Z,48.53
2019-05-20T13:49:21.253Z,40.03
2019-05-20T13:51:48.808Z,35.40
2019-05-20T13:54:10.985Z,34.57
2019-05-20T13:56:35.245Z,35.57
2019-05-20T13:59:07.844Z,30.40
2019-05-20T14:01:29.389Z,35.27
2019-05-20T14:03:50.711Z,26.83
2019-05-20T14:06:11.922Z,29.50
2019-05-20T14:08:33.110Z,28.30
2019-05-20T14:11:03.530Z,33.03
2019-05-20T14:13:17.507Z,32.77
2019-05-20T14:15:38.758Z,33.07
2019-05-20T14:18:00.012Z,33.93
2019-05-20T14:20:21.330Z,29.40
2019-05-20T14:22:42.521Z,33.17
2019-05-20T14:25:05.736Z,28.97
2019-05-20T14:27:27.024Z,31.03
2019-05-20T14:29:48.219Z,27.43
2019-05-20T14:32:09.564Z,29.40
2019-05-20T14:34:30.809Z,29.17
2019-05-20T14:36:53.043Z,27.40
2019-05-20T14:39:14.502Z,27.33
2019-05-20T14:41:35.756Z,27.80
2019-05-20T14:43:57.006Z,54.83
2019-05-20T14:46:18.222Z,35.73
2019-05-20T14:48:39.654Z,28.00
2019-05-20T14:51:00.894Z,28.87
2019-05-20T14:53:23.289Z,29.17
2019-05-20T14:55:44.868Z,27.50
2019-05-20T14:58:06.102Z,29.10
2019-05-20T15:00:27.302Z,31.67
2019-05-20T15:02:48.505Z,28.07
2019-05-20T15:05:09.817Z,28.10
2019-05-20T15:07:32.324Z,30.53
2019-05-20T15:09:53.632Z,27.17
2019-05-20T15:12:14.834Z,27.73
2019-05-20T15:14:36.022Z,29.23
2019-05-20T15:16:57.272Z,28.80
2019-05-20T15:19:18.569Z,29.90
2019-05-20T15:22:01.723Z,29.37
2019-05-20T15:24:22.911Z,29.70
2019-05-20T15:26:44.156Z,29.07
2019-05-20T15:29:06.148Z,28.33
2019-05-20T15:31:27.816Z,29.63
2019-05-20T15:33:49.036Z,28.50
2019-05-20T15:36:10.277Z,31.10
2019-05-20T15:38:51.374Z,30.97
2019-05-20T15:41:12.685Z,31.57
2019-05-20T15:43:33.896Z,28.60
2019-05-20T15:46:08.918Z,30.77
2019-05-20T15:48:30.246Z,25.73
2019-05-20T15:50:51.520Z,26.87
2019-05-20T15:53:13.545Z,27.13
2019-05-20T15:55:35.125Z,28.73
2019-05-20T15:57:56.527Z,25.13
2019-05-20T16:00:19.893Z,24.33
2019-05-20T16:02:41.793Z,23.63
2019-05-20T16:05:04.959Z,24.57
2019-05-20T16:07:26.393Z,23.83
2019-05-20T16:09:47.598Z,26.80
2019-05-20T16:12:09.077Z,23.43
2019-05-20T16:14:31.470Z,24.37
2019-05-20T16:16:52.694Z,24.83
2019-05-20T16:19:16.406Z,29.13
2019-05-20T16:21:37.659Z,25.27
2019-05-20T16:24:02.220Z,28.00
2019-05-20T16:26:23.690Z,26.90
2019-05-20T16:28:45.176Z,25.80
2019-05-20T16:31:06.536Z,23.10
2019-05-20T16:33:31.023Z,23.63
2019-05-20T16:35:52.561Z,22.40
2019-05-20T16:38:13.981Z,24.27
2019-05-20T16:40:35.438Z,21.87
2019-05-20T16:42:56.838Z,19.07
2019-05-20T16:45:18.674Z,22.93
2019-05-20T16:47:39.927Z,23.57
2019-05-20T16:50:01.637Z,22.40
2019-05-20T16:52:24.903Z,22.20
2019-05-20T16:54:46.384Z,20.73
2019-05-20T16:57:07.873Z,23.53
2019-05-20T16:59:29.103Z,23.87
2019-05-20T17:01:54.106Z,24.20
2019-05-20T17:04:15.631Z,20.80
2019-05-20T17:06:36.945Z,22.73
2019-05-20T17:08:58.166Z,22.13
2019-05-20T17:11:19.462Z,23.57
2019-05-20T17:13:40.694Z,21.07
2019-05-20T17:16:03.441Z,22.73
2019-05-20T17:18:24.744Z,21.60
2019-05-20T17:20:59.272Z,20.57
2019-05-20T17:23:20.471Z,22.60
2019-05-20T17:25:41.694Z,18.87
2019-05-20T17:28:03.317Z,20.40
2019-05-20T17:30:24.667Z,20.67
2019-05-20T17:32:47.175Z,21.50
2019-05-20T17:35:08.873Z,19.40
2019-05-20T17:37:30.625Z,21.13
2019-05-20T17:39:52.118Z,18.87
2019-05-20T17:42:13.331Z,21.07
2019-05-20T17:44:34.713Z,22.60
2019-05-20T17:46:56.162Z,22.80
2019-05-20T17:49:18.737Z,23.40
2019-05-20T17:51:43.188Z,22.47
2019-05-20T17:54:03.161Z,20.37
2019-05-20T17:56:25.688Z,22.57
2019-05-20T17:58:46.900Z,22.63
2019-05-20T18:01:15.155Z,23.00
2019-05-20T18:03:31.189Z,25.13
2019-05-20T18:05:52.397Z,26.83
2019-05-20T18:08:13.983Z,28.80
2019-05-20T18:10:35.189Z,28.23
2019-05-20T18:12:56.558Z,26.40
2019-05-20T18:15:18.049Z,28.33
2019-05-20T18:17:39.237Z,29.07
2019-05-20T18:20:00.472Z,29.90
2019-05-20T18:22:21.682Z,29.77
2019-05-20T18:24:42.908Z,29.20
2019-05-20T18:27:04.500Z,29.87
2019-05-20T18:29:25.710Z,29.70
2019-05-20T18:31:46.935Z,28.00
2019-05-20T18:34:08.241Z,29.07
2019-05-20T18:36:29.440Z,28.47
2019-05-20T18:38:50.642Z,30.77
2019-05-20T18:41:11.833Z,28.77
2019-05-20T18:43:33.083Z,27.23
2019-05-20T18:45:54.537Z,25.60
2019-05-20T18:48:15.730Z,40.77
2019-05-20T18:50:36.935Z,71.67
2019-05-20T18:52:58.219Z,72.30
2019-05-20T18:55:19.418Z,39.20
2019-05-20T18:57:40.744Z,28.20
2019-05-20T19:00:04.658Z,26.93
2019-05-20T19:02:26.385Z,27.40
2019-05-20T19:04:47.813Z,27.20
2019-05-20T19:07:08.998Z,30.87
2019-05-20T19:09:30.242Z,36.57
2019-05-20T19:11:51.430Z,37.13
2019-05-20T19:14:12.637Z,35.90
2019-05-20T19:16:34.044Z,38.37
2019-05-20T19:18:56.714Z,36.57
2019-05-20T19:21:17.898Z,38.20
2019-05-20T19:23:39.489Z,40.90
2019-05-20T19:26:00.697Z,41.10
2019-05-20T19:28:22.009Z,39.50
2019-05-20T19:30:43.324Z,38.87
2019-05-20T19:33:05.001Z,39.80
2019-05-20T19:35:26.313Z,43.60
2019-05-20T19:37:47.994Z,39.43
2019-05-20T19:40:09.632Z,42.27
2019-05-20T19:42:32.422Z,41.03
2019-05-20T19:44:53.630Z,43.00
2019-05-20T19:47:14.816Z,42.57
2019-05-20T19:49:36.163Z,38.47
2019-05-20T19:51:57.622Z,42.33
2019-05-20T19:54:18.931Z,37.70
2019-05-20T19:56:40.134Z,37.17
2019-05-20T19:59:01.443Z,36.23
2019-05-20T20:01:22.749Z,35.53
2019-05-20T20:03:43.945Z,36.13
2019-05-20T20:06:05.168Z,38.70
2019-05-20T20:08:26.383Z,40.43
2019-05-20T20:10:47.699Z,40.83
2019-05-20T20:13:08.907Z,39.90
2019-05-20T20:15:45.796Z,46.43
2019-05-20T20:18:06.985Z,44.20
2019-05-20T20:20:28.208Z,41.63
2019-05-20T20:22:50.397Z,40.30
2019-05-20T20:25:11.693Z,38.90
2019-05-20T20:27:33.107Z,44.43
2019-05-20T20:29:54.462Z,38.50
2019-05-20T20:32:15.681Z,40.23
2019-05-20T20:34:36.989Z,39.00
2019-05-20T20:36:58.189Z,36.43
2019-05-20T20:39:19.417Z,37.43
2019-05-20T20:41:40.783Z,35.40
2019-05-20T20:47:13.460Z,38.77
2019-05-20T20:49:34.956Z,40.27
2019-05-20T20:51:56.169Z,38.53
2019-05-20T20:54:17.375Z,38.60
2019-05-20T20:56:38.662Z,44.13
2019-05-20T20:59:00.156Z,78.83
2019-05-20T21:01:22.460Z,53.40
2019-05-20T21:03:43.660Z,47.37
2019-05-20T21:06:04.916Z,40.27
2019-05-20T21:08:26.383Z,37.97
2019-05-20T21:10:47.591Z,39.60
2019-05-20T21:13:08.803Z,40.20
2019-05-20T21:15:30.008Z,37.33
2019-05-20T21:17:51.229Z,43.20
2019-05-20T21:20:12.424Z,45.53
2019-05-20T21:22:33.966Z,42.10
2019-05-20T21:24:55.157Z,42.57
2019-05-20T21:27:16.359Z,42.13
2019-05-20T21:29:37.623Z,48.67
2019-05-20T21:31:58.836Z,47.77
2019-05-20T21:34:21.131Z,46.10
2019-05-20T21:36:47.950Z,47.73
2019-05-20T21:39:05.554Z,48.23
2019-05-20T21:41:26.801Z,54.47
2019-05-20T21:43:47.998Z,48.43
2019-05-20T21:46:09.244Z,43.93
2019-05-20T21:48:31.974Z,43.57
2019-05-20T21:50:53.192Z,41.10
2019-05-20T21:53:14.440Z,35.27
2019-05-20T21:55:35.764Z,38.30
2019-05-20T21:57:56.966Z,29.73
2019-05-20T22:00:21.662Z,28.57
2019-05-20T22:02:44.805Z,29.63
2019-05-20T22:05:06.816Z,29.13
2019-05-20T22:07:28.547Z,28.00
2019-05-20T22:09:51.006Z,29.33
2019-05-20T22:12:12.208Z,30.00
2019-05-20T22:14:33.427Z,31.70
2019-05-20T22:16:54.692Z,33.27
2019-05-20T22:19:16.040Z,35.17
2019-05-20T22:21:47.819Z,35.50
2019-05-20T22:24:10.038Z,36.33
2019-05-20T22:26:31.253Z,36.07
2019-05-20T22:28:52.454Z,40.57
2019-05-20T22:31:13.679Z,42.33
2019-05-20T22:33:41.599Z,38.00
2019-05-20T22:35:58.009Z,41.03
2019-05-20T22:38:20.265Z,45.23
2019-05-20T22:40:42.355Z,43.57
2019-05-20T22:43:03.568Z,46.50
2019-05-20T22:45:24.763Z,45.30
2019-05-20T22:47:46.064Z,47.13
2019-05-20T22:50:07.430Z,47.87
2019-05-20T22:52:28.726Z,46.17
2019-05-20T22:54:49.957Z,45.20
2019-05-20T22:57:11.172Z,47.40
2019-05-20T22:59:32.354Z,45.57
2019-05-20T23:01:53.585Z,46.90
2019-05-20T23:04:14.895Z,44.73
2019-05-20T23:06:36.111Z,45.83
2019-05-20T23:08:57.324Z,44.30
2019-05-20T23:11:18.585Z,46.50
2019-05-20T23:13:39.895Z,45.30
2019-05-20T23:16:01.195Z,46.93
2019-05-20T23:18:22.426Z,44.33
2019-05-20T23:20:43.728Z,45.17
2019-05-20T23:23:04.950Z,46.77
2019-05-20T23:25:26.167Z,44.30
2019-05-20T23:27:47.396Z,46.87
2019-05-20T23:30:09.256Z,45.23
2019-05-20T23:32:30.483Z,42.20
2019-05-20T23:34:51.705Z,45.47
2019-05-20T23:37:12.922Z,46.57
2019-05-20T23:39:34.141Z,43.37
2019-05-20T23:41:55.346Z,43.63
2019-05-20T23:44:16.566Z,40.40
2019-05-20T23:46:37.786Z,44.10
2019-05-20T23:48:59.004Z,42.73
2019-05-20T23:51:20.201Z,40.77
2019-05-20T23:53:41.416Z,43.17
2019-05-20T23:56:03.092Z,41.57
2019-05-20T23:58:24.418Z,44.30
